Time;durP1;ratioP1;P1;durP2;ratioP2;P2;SDS_P1;SDS_P2;PMS_P1;PMS_P2;Temp;Humidity;BMP_temperature;BMP_pressure;BME280_temperature;BME280_humidity;BME280_pressure;Samples;Min_cycle;Max_cycle;Signal;HPM_P1;HPM_P2
2022/06/12 13:24:52;;;;;;;4.50;2.38;;;;;;;-143.85;100.00;70650.75;5238693;22;1561165;-96
2022/06/12 13:27:24;;;;;;;3.10;1.20;;;;;;;-143.85;100.00;70650.75;5064882;28;20037;-96
2022/06/12 13:29:52;;;;;;;2.03;1.25;;;;;;;-143.85;100.00;70650.75;5069426;28;20131;-96
2022/06/12 13:32:24;;;;;;;1.15;1.02;;;;;;;-143.85;100.00;70650.75;5067715;28;20035;-96
2022/06/12 13:35:05;;;;;;;1.38;1.17;;;;;;;-143.85;100.00;70650.75;5110197;22;20032;-96
2022/06/12 13:37:34;;;;;;;1.30;1.20;;;;;;;-143.85;100.00;70650.75;5047788;28;20037;-96
2022/06/12 13:40:02;;;;;;;2.03;1.25;;;;;;;-143.85;100.00;70650.75;5045486;28;20052;-96
2022/06/12 13:42:29;;;;;;;3.10;1.57;;;;;;;-143.85;100.00;70650.75;5043777;28;20013;-96
2022/06/12 13:44:56;;;;;;;1.40;1.30;;;;;;;-143.85;100.00;70650.75;5038540;28;20274;-96
2022/06/12 13:47:30;;;;;;;1.87;1.20;;;;;;;-143.85;100.00;70650.75;5042472;28;20030;-96
2022/06/12 13:50:07;;;;;;;1.25;1.15;;;;;;;-143.85;100.00;70650.75;5042866;28;20038;-96
2022/06/12 13:53:03;;;;;;;2.67;1.15;;;;;;;-143.85;100.00;70650.75;5037309;28;20033;-95
2022/06/12 13:55:42;;;;;;;1.13;0.93;;;;;;;-143.85;100.00;70650.75;5036664;28;20041;-96
2022/06/12 13:58:29;;;;;;;1.40;1.17;;;;;;;-143.85;100.00;70650.75;5039925;28;20032;-96
2022/06/12 14:00:59;;;;;;;0.90;0.90;;;;;;;-143.85;100.00;70650.75;5037183;28;20091;-96
2022/06/12 14:03:28;;;;;;;1.85;1.10;;;;;;;-143.85;100.00;70650.75;5037313;28;20030;-96
2022/06/12 14:05:58;;;;;;;2.00;1.25;;;;;;;-143.85;100.00;70650.75;5039542;28;20044;-94
2022/06/12 14:08:26;;;;;;;2.15;1.50;;;;;;;-143.85;100.00;70650.75;5041416;28;20029;-96
2022/06/12 14:10:52;;;;;;;;;;;;;;;-143.85;100.00;70650.75;5035910;28;20087;-96
2022/06/12 14:13:36;;;;;;;2.30;1.33;;;;;;;-143.85;100.00;70650.75;5037035;28;19996;-95
2022/06/12 14:16:26;;;;;;;1.23;1.20;;;;;;;-143.85;100.00;70650.75;5036739;28;20477;-95
2022/06/12 14:18:56;;;;;;;1.85;1.40;;;;;;;-143.85;100.00;70650.75;5023791;28;20041;-95
2022/06/12 14:21:43;;;;;;;1.65;1.05;;;;;;;-143.85;100.00;70650.75;5034497;28;20040;-94
2022/06/12 14:24:14;;;;;;;1.55;1.42;;;;;;;-143.85;100.00;70650.75;5035356;28;20504;-94
2022/06/12 14:26:43;;;;;;;1.85;1.38;;;;;;;-143.85;100.00;70650.75;5036214;28;20034;-96
2022/06/12 14:29:37;;;;;;;1.75;1.30;;;;;;;-143.85;100.00;70650.75;5034254;28;20030;-96
2022/06/12 14:32:11;;;;;;;1.55;1.35;;;;;;;-143.85;100.00;70650.75;5036335;28;20034;-92
2022/06/12 14:34:38;;;;;;;0.95;0.93;;;;;;;-143.85;100.00;70650.75;5037925;28;20090;-95
2022/06/12 14:37:04;;;;;;;1.00;0.90;;;;;;;-143.85;100.00;70650.75;5035998;28;20038;-96
2022/06/12 14:39:38;;;;;;;1.75;1.60;;;;;;;-143.85;100.00;70650.75;5033833;28;20041;-96
2022/06/12 14:42:09;;;;;;;2.08;1.50;;;;;;;-143.85;100.00;70650.75;5034594;28;20032;-96
2022/06/12 14:44:36;;;;;;;1.23;1.13;;;;;;;-143.85;100.00;70650.75;5037023;28;20033;-96
2022/06/12 14:47:24;;;;;;;1.48;1.23;;;;;;;-143.85;100.00;70650.75;5034580;28;20029;-96
2022/06/12 14:49:52;;;;;;;1.38;1.08;;;;;;;-143.85;100.00;70650.75;5035783;28;20036;-95
2022/06/12 14:52:23;;;;;;;5.95;2.42;;;;;;;-143.85;100.00;70650.75;5035089;28;20051;-96
2022/06/12 14:54:51;;;;;;;0.85;0.85;;;;;;;-143.85;100.00;70650.75;5034023;28;20068;-94
2022/06/12 14:57:17;;;;;;;2.58;1.25;;;;;;;-143.85;100.00;70650.75;5033438;28;20036;-93
2022/06/12 14:59:44;;;;;;;4.18;1.35;;;;;;;-143.85;100.00;70650.75;5032684;28;20033;-94
2022/06/12 15:02:28;;;;;;;1.55;0.95;;;;;;;-143.85;100.00;70650.75;5033718;28;20513;-94
2022/06/12 15:04:54;;;;;;;2.25;0.95;;;;;;;-143.85;100.00;70650.75;5032882;28;20030;-94
2022/06/12 15:07:20;;;;;;;1.35;1.00;;;;;;;-143.85;100.00;70650.75;5032554;28;20033;-94
2022/06/12 15:09:45;;;;;;;3.00;1.55;;;;;;;-143.85;100.00;70650.75;5033724;28;20059;-95
2022/06/12 15:12:17;;;;;;;1.45;1.35;;;;;;;-143.85;100.00;70650.75;5032497;28;20021;-94
2022/06/12 15:14:43;;;;;;;1.20;1.10;;;;;;;-143.85;100.00;70650.75;5033227;28;20033;-94
2022/06/12 15:17:12;;;;;;;1.17;1.10;;;;;;;-143.85;100.00;70650.75;5032152;28;20405;-95
2022/06/12 15:19:38;;;;;;;1.60;1.50;;;;;;;-143.85;100.00;70650.75;5033313;28;20409;-94
2022/06/12 15:22:03;;;;;;;1.20;1.13;;;;;;;-143.85;100.00;70650.75;5032137;28;20030;-94
2022/06/12 15:24:31;;;;;;;1.50;1.20;;;;;;;-143.85;100.00;70650.75;5032194;28;20026;-94
2022/06/12 15:29:47;;;;;;;1.48;1.38;;;;;;;-143.85;100.00;70650.75;5033658;28;20456;-95
2022/06/12 15:32:28;;;;;;;2.97;1.30;;;;;;;-143.85;100.00;70650.75;5031956;28;20034;-94
2022/06/12 15:34:55;;;;;;;1.42;1.20;;;;;;;-143.85;100.00;70650.75;5032182;28;20036;-95
2022/06/12 15:37:21;;;;;;;5.20;1.63;;;;;;;-143.85;100.00;70650.75;5032167;28;20021;-94
2022/06/12 15:39:47;;;;;;;1.70;1.40;;;;;;;-143.85;100.00;70650.75;5032061;28;20138;-94
2022/06/12 15:42:14;;;;;;;1.50;1.30;;;;;;;-143.85;100.00;70650.75;5033427;28;20473;-93
2022/06/12 15:44:40;;;;;;;1.27;1.23;;;;;;;-143.85;100.00;70650.75;5035741;28;20411;-94
2022/06/12 15:47:06;;;;;;;2.13;1.30;;;;;;;-143.85;100.00;70650.75;5036045;28;20029;-93
2022/06/12 15:49:32;;;;;;;1.45;1.35;;;;;;;-143.85;100.00;70650.75;5035747;28;20397;-95
2022/06/12 15:52:00;;;;;;;2.15;1.70;;;;;;;-143.85;100.00;70650.75;5035644;28;20078;-93
2022/06/12 15:54:25;;;;;;;1.80;1.40;;;;;;;-143.85;100.00;70650.75;5035486;28;20033;-94
2022/06/12 15:56:58;;;;;;;2.30;1.45;;;;;;;-143.85;100.00;70650.75;5035525;28;20087;-95
2022/06/12 15:59:36;;;;;;;1.83;1.42;;;;;;;-143.85;100.00;70650.75;5036568;28;20040;-93
2022/06/12 16:02:22;;;;;;;1.60;1.17;;;;;;;-143.85;100.00;70650.75;5035643;28;20025;-93
2022/06/12 16:04:48;;;;;;;1.05;0.88;;;;;;;-143.85;100.00;70650.75;5035493;28;20033;-90
2022/06/12 16:07:15;;;;;;;1.90;1.38;;;;;;;-143.85;100.00;70650.75;5035586;28;20022;-89
2022/06/12 16:09:41;;;;;;;2.05;1.40;;;;;;;-143.85;100.00;70650.75;5035727;28;20032;-92
2022/06/12 16:12:08;;;;;;;0.95;0.82;;;;;;;-143.85;100.00;70650.75;5035202;28;20029;-91
2022/06/12 16:14:34;;;;;;;1.70;1.27;;;;;;;-143.85;100.00;70650.75;5035031;28;20025;-91
2022/06/12 16:16:59;;;;;;;1.33;1.17;;;;;;;-143.85;100.00;70650.75;5035110;28;20029;-91
2022/06/12 16:19:24;;;;;;;1.58;0.98;;;;;;;-143.85;100.00;70650.75;5035083;28;20027;-90
2022/06/12 16:21:50;;;;;;;2.08;1.75;;;;;;;-143.85;100.00;70650.75;5035109;28;20114;-90
2022/06/12 16:24:15;;;;;;;1.85;1.65;;;;;;;-143.85;100.00;70650.75;5034699;28;20029;-88
2022/06/12 16:26:41;;;;;;;0.90;0.80;;;;;;;-143.85;100.00;70650.75;5034794;28;20079;-86
2022/06/12 16:29:07;;;;;;;2.10;1.10;;;;;;;-143.85;100.00;70650.75;5034739;28;20036;-86
2022/06/12 16:31:34;;;;;;;3.30;1.77;;;;;;;-143.85;100.00;70650.75;5034636;28;20056;-86
2022/06/12 16:33:59;;;;;;;1.48;1.38;;;;;;;-143.85;100.00;70650.75;5034678;28;20420;-85
2022/06/12 16:36:24;;;;;;;1.83;1.38;;;;;;;-143.85;100.00;70650.75;5036111;28;20076;-86
2022/06/12 16:38:50;;;;;;;3.45;1.38;;;;;;;-143.85;100.00;70650.75;5034662;28;20025;-86
2022/06/12 16:41:15;;;;;;;4.15;1.35;;;;;;;-143.85;100.00;70650.75;5035614;28;20485;-86
2022/06/12 16:43:45;;;;;;;4.97;1.20;;;;;;;-143.85;100.00;70650.75;5034515;28;20017;-86
2022/06/12 16:46:11;;;;;;;3.42;2.05;;;;;;;-143.85;100.00;70650.75;5034485;28;20034;-86
2022/06/12 16:48:36;;;;;;;2.65;1.27;;;;;;;-143.85;100.00;70650.75;5034453;28;20025;-89
2022/06/12 16:51:12;;;;;;;5.60;2.17;;;;;;;-143.85;100.00;70650.75;5034664;28;20040;-88
2022/06/12 16:53:37;;;;;;;1.83;1.27;;;;;;;-143.85;100.00;70650.75;5033676;28;20047;-89
2022/06/12 16:56:03;;;;;;;3.75;1.25;;;;;;;-143.85;100.00;70650.75;5034389;28;20036;-89
2022/06/12 16:58:29;;;;;;;1.73;1.38;;;;;;;-143.85;100.00;70650.75;5034556;28;20032;-88
2022/06/12 17:00:54;;;;;;;1.42;1.30;;;;;;;-143.85;100.00;70650.75;5033455;28;20022;-88
2022/06/12 17:03:25;;;;;;;3.75;1.85;;;;;;;-143.85;100.00;70650.75;5033589;28;20120;-84
2022/06/12 17:05:52;;;;;;;1.92;1.55;;;;;;;-143.85;100.00;70650.75;5033457;28;20029;-84
2022/06/12 17:08:18;;;;;;;5.68;2.00;;;;;;;-143.85;100.00;70650.75;5033311;28;20413;-83
2022/06/12 17:10:43;;;;;;;2.10;1.60;;;;;;;-143.85;100.00;70650.75;5032932;28;20033;-83
2022/06/12 17:13:12;;;;;;;2.47;1.92;;;;;;;-143.85;100.00;70650.75;5032994;28;20055;-83
2022/06/12 17:15:38;;;;;;;3.50;2.40;;;;;;;-143.85;100.00;70650.75;5033014;28;20048;-85
2022/06/12 17:20:48;;;;;;;1.30;1.20;;;;;;;-143.85;100.00;70650.75;5034228;28;20527;-82
2022/06/12 17:23:27;;;;;;;7.13;1.33;;;;;;;-143.85;100.00;70650.75;5032999;28;20061;-82
2022/06/12 17:25:54;;;;;;;1.52;1.30;;;;;;;-143.85;100.00;70650.75;5032794;28;20025;-83
2022/06/12 17:28:20;;;;;;;0.85;0.82;;;;;;;-143.85;100.00;70650.75;5033866;28;20135;-82
2022/06/12 17:30:47;;;;;;;2.00;1.55;;;;;;;-143.85;100.00;70650.75;5032572;28;20116;-83
2022/06/12 17:33:14;;;;;;;2.72;1.60;;;;;;;-143.85;100.00;70650.75;5032862;28;20042;-84
2022/06/12 17:35:40;;;;;;;4.47;1.85;;;;;;;-143.85;100.00;70650.75;5032331;28;20053;-84
2022/06/12 17:38:06;;;;;;;1.75;1.58;;;;;;;-143.85;100.00;70650.75;5032489;28;20500;-84
2022/06/12 17:40:33;;;;;;;3.05;1.80;;;;;;;-143.85;100.00;70650.75;5032929;28;20064;-84
2022/06/12 17:42:59;;;;;;;1.83;1.45;;;;;;;-143.85;100.00;70650.75;5032712;28;20072;-84
2022/06/12 17:45:28;;;;;;;2.13;1.50;;;;;;;-143.85;100.00;70650.75;5032594;28;20044;-85
2022/06/12 17:47:55;;;;;;;1.95;1.70;;;;;;;-143.85;100.00;70650.75;5032444;28;20049;-85
2022/06/12 17:50:21;;;;;;;3.28;1.70;;;;;;;-143.85;100.00;70650.75;5032734;28;20030;-85
2022/06/12 17:52:47;;;;;;;2.60;2.08;;;;;;;-143.85;100.00;70650.75;5033814;28;20033;-85
2022/06/12 17:55:12;;;;;;;3.03;1.52;;;;;;;-143.85;100.00;70650.75;5032621;28;20056;-85
2022/06/12 17:57:38;;;;;;;6.47;1.77;;;;;;;-143.85;100.00;70650.75;5032673;28;20029;-85
2022/06/12 18:00:06;;;;;;;2.85;1.65;;;;;;;-143.85;100.00;70650.75;5032161;28;20039;-85
2022/06/12 18:02:32;;;;;;;1.55;1.00;;;;;;;-143.85;100.00;70650.75;5033696;28;20033;-85
2022/06/12 18:04:57;;;;;;;2.67;1.98;;;;;;;-143.85;100.00;70650.75;5031631;28;20037;-85
2022/06/12 18:07:22;;;;;;;2.17;1.98;;;;;;;-143.85;100.00;70650.75;5032208;28;20025;-86
2022/06/12 18:09:48;;;;;;;3.33;1.45;;;;;;;-143.85;100.00;70650.75;5032417;28;20029;-85
2022/06/12 18:12:14;;;;;;;2.30;1.63;;;;;;;-143.85;100.00;70650.75;5032057;28;20468;-86
2022/06/12 18:20:20;;;;;;;2.42;1.60;;;;;;;-143.85;100.00;70650.75;5033517;28;19958;-87
2022/06/12 18:22:46;;;;;;;2.92;2.03;;;;;;;-143.85;100.00;70650.75;5032185;28;20456;-86
2022/06/12 18:25:11;;;;;;;3.25;1.95;;;;;;;-143.85;100.00;70650.75;5032210;28;20076;-87
2022/06/12 18:27:37;;;;;;;2.20;1.63;;;;;;;-143.85;100.00;70650.75;5032265;28;20029;-86
2022/06/12 18:30:04;;;;;;;2.67;1.40;;;;;;;-143.85;100.00;70650.75;5031891;28;20064;-85
2022/06/12 18:32:31;;;;;;;2.00;1.30;;;;;;;-143.85;100.00;70650.75;5032204;28;20486;-86
2022/06/12 18:34:57;;;;;;;3.63;2.40;;;;;;;-143.85;100.00;70650.75;5031654;28;20057;-87
2022/06/12 18:37:23;;;;;;;2.13;1.50;;;;;;;-143.85;100.00;70650.75;5031935;28;20029;-85
2022/06/12 18:39:48;;;;;;;2.92;2.00;;;;;;;-143.85;100.00;70650.75;5031871;28;20516;-87
2022/06/12 18:42:15;;;;;;;1.95;1.30;;;;;;;-143.85;100.00;70650.75;5032108;28;20021;-86
2022/06/12 18:44:42;;;;;;;2.35;1.55;;;;;;;-143.85;100.00;70650.75;5031747;28;20075;-86
2022/06/12 18:47:07;;;;;;;2.08;1.58;;;;;;;-143.85;100.00;70650.75;5033047;28;20083;-86
2022/06/12 18:49:33;;;;;;;3.30;1.23;;;;;;;-143.85;100.00;70650.75;5032001;28;20025;-87
2022/06/12 18:51:58;;;;;;;3.72;1.50;;;;;;;-143.85;100.00;70650.75;5031884;28;20412;-87
2022/06/12 18:54:24;;;;;;;2.00;1.30;;;;;;;-143.85;100.00;70650.75;5031683;28;20477;-87
2022/06/12 18:56:49;;;;;;;1.08;1.02;;;;;;;-143.85;100.00;70650.75;5032451;28;20022;-86
2022/06/12 18:59:17;;;;;;;4.28;1.58;;;;;;;-143.85;100.00;70650.75;5031811;28;20124;-86
2022/06/12 19:01:43;;;;;;;2.40;1.30;;;;;;;-143.85;100.00;70650.75;5031582;28;20083;-88
2022/06/12 19:04:09;;;;;;;2.35;1.90;;;;;;;-143.85;100.00;70650.75;5031592;28;20047;-86
2022/06/12 19:06:34;;;;;;;1.95;1.67;;;;;;;-143.85;100.00;70650.75;5031561;28;20443;-85
2022/06/12 19:09:00;;;;;;;1.23;1.02;;;;;;;-143.85;100.00;70650.75;5031418;28;20030;-86
2022/06/12 19:11:37;;;;;;;2.80;1.48;;;;;;;-143.85;100.00;70650.75;5031506;28;20017;-85
2022/06/12 19:14:09;;;;;;;0.73;0.70;;;;;;;-143.85;100.00;70650.75;5031335;28;20356;-85
2022/06/12 19:16:35;;;;;;;2.15;1.70;;;;;;;-143.85;100.00;70650.75;5035414;28;20029;-85
2022/06/12 19:19:02;;;;;;;2.35;1.20;;;;;;;-143.85;100.00;70650.75;5037995;28;20022;-85
2022/06/12 19:21:27;;;;;;;5.68;1.35;;;;;;;-143.85;100.00;70650.75;5037921;28;20111;-85
2022/06/12 19:23:53;;;;;;;7.68;1.60;;;;;;;-143.85;100.00;70650.75;5037468;28;20060;-84
2022/06/12 19:26:18;;;;;;;1.75;1.45;;;;;;;-143.85;100.00;70650.75;5037671;28;20032;-85
2022/06/12 19:28:47;;;;;;;1.33;1.20;;;;;;;-143.85;100.00;70650.75;5037984;28;20033;-85
2022/06/12 19:31:12;;;;;;;1.40;1.20;;;;;;;-143.85;100.00;70650.75;5038533;28;20160;-85
2022/06/12 19:33:38;;;;;;;1.40;1.17;;;;;;;-143.85;100.00;70650.75;5037624;28;20119;-85
2022/06/12 19:36:05;;;;;;;2.25;1.60;;;;;;;-143.85;100.00;70650.75;5036925;28;20053;-85
2022/06/12 19:38:32;;;;;;;2.20;1.50;;;;;;;-143.85;100.00;70650.75;5037803;28;20041;-85
2022/06/12 19:40:57;;;;;;;2.53;2.13;;;;;;;-143.85;100.00;70650.75;5037690;28;20057;-85
2022/06/12 19:43:23;;;;;;;1.40;1.30;;;;;;;-143.85;100.00;70650.75;5037715;28;20064;-85
2022/06/12 19:45:49;;;;;;;1.88;1.45;;;;;;;-143.85;100.00;70650.75;5037259;28;20033;-84
2022/06/12 19:48:15;;;;;;;3.13;1.65;;;;;;;-143.85;100.00;70650.75;5037535;28;20048;-85
2022/06/12 19:50:40;;;;;;;2.95;1.77;;;;;;;-143.85;100.00;70650.75;5037536;28;20038;-84
2022/06/12 19:53:07;;;;;;;2.05;1.40;;;;;;;-143.85;100.00;70650.75;5037653;28;20038;-84
2022/06/12 19:55:33;;;;;;;2.03;1.73;;;;;;;-143.85;100.00;70650.75;5037553;28;20029;-84
2022/06/12 19:57:59;;;;;;;1.40;1.20;;;;;;;-143.85;100.00;70650.75;5037075;28;20025;-85
2022/06/12 20:00:25;;;;;;;2.58;1.50;;;;;;;-143.85;100.00;70650.75;5037392;28;20032;-86
2022/06/12 20:02:50;;;;;;;1.83;1.40;;;;;;;-143.85;100.00;70650.75;5037930;28;20025;-85
2022/06/12 20:08:04;;;;;;;1.90;1.67;;;;;;;-143.85;100.00;70650.75;5038769;28;20251;-86
2022/06/12 20:10:30;;;;;;;1.60;1.40;;;;;;;-143.85;100.00;70650.75;5037914;28;20021;-86
2022/06/12 20:12:56;;;;;;;2.38;1.70;;;;;;;-143.85;100.00;70650.75;5037937;28;20036;-86
2022/06/12 20:15:22;;;;;;;1.92;1.48;;;;;;;-143.85;100.00;70650.75;5037633;28;20401;-84
2022/06/12 20:17:49;;;;;;;2.03;1.55;;;;;;;-143.85;100.00;70650.75;5037266;28;20034;-85
2022/06/12 20:20:16;;;;;;;1.95;1.65;;;;;;;-143.85;100.00;70650.75;5037619;28;20032;-86
2022/06/12 20:22:42;;;;;;;2.72;1.58;;;;;;;-143.85;100.00;70650.75;5037378;28;20033;-85
2022/06/12 20:25:09;;;;;;;2.63;1.55;;;;;;;-143.85;100.00;70650.75;5037454;28;20030;-87
2022/06/12 20:27:35;;;;;;;2.47;1.23;;;;;;;-143.85;100.00;70650.75;5035231;28;20087;-84
2022/06/12 20:30:00;;;;;;;2.45;1.67;;;;;;;-143.85;100.00;70650.75;5033935;28;20025;-84
2022/06/12 20:32:26;;;;;;;1.45;1.08;;;;;;;-143.85;100.00;70650.75;5034401;28;20108;-84
2022/06/12 20:34:52;;;;;;;1.88;1.73;;;;;;;-143.85;100.00;70650.75;5033687;28;20040;-85
2022/06/12 20:37:19;;;;;;;1.65;1.30;;;;;;;-143.85;100.00;70650.75;5035040;28;20551;-85
2022/06/12 20:39:45;;;;;;;1.85;1.55;;;;;;;-143.85;100.00;70650.75;5034006;28;20413;-85
2022/06/12 20:42:10;;;;;;;1.45;1.35;;;;;;;-143.85;100.00;70650.75;5034280;28;20030;-86
2022/06/12 20:44:37;;;;;;;1.63;1.20;;;;;;;-143.85;100.00;70650.75;5034020;28;20030;-85
2022/06/12 20:47:03;;;;;;;2.53;2.03;;;;;;;-143.85;100.00;70650.75;5034084;28;20108;-85
2022/06/12 20:49:29;;;;;;;2.75;1.50;;;;;;;-143.85;100.00;70650.75;5034051;28;20033;-85
2022/06/12 20:51:55;;;;;;;1.77;1.13;;;;;;;-143.85;100.00;70650.75;5035143;28;20083;-84
2022/06/12 20:54:20;;;;;;;2.60;1.90;;;;;;;-143.85;100.00;70650.75;5034870;28;20033;-85
2022/06/12 20:56:46;;;;;;;2.92;1.30;;;;;;;-143.85;100.00;70650.75;5034531;28;20517;-84
2022/06/12 20:59:12;;;;;;;1.52;1.27;;;;;;;-143.85;100.00;70650.75;5034057;28;20025;-84
2022/06/12 21:01:37;;;;;;;1.48;1.15;;;;;;;-143.85;100.00;70650.75;5034030;28;20032;-85
2022/06/12 21:04:03;;;;;;;1.67;1.42;;;;;;;-143.85;100.00;70650.75;5033971;28;20037;-85
2022/06/12 21:06:29;;;;;;;2.28;1.65;;;;;;;-143.85;100.00;70650.75;5034328;28;20060;-87
2022/06/12 21:08:55;;;;;;;2.30;1.58;;;;;;;-143.85;100.00;70650.75;5033942;28;20036;-85
2022/06/12 21:11:21;;;;;;;1.60;1.50;;;;;;;-143.85;100.00;70650.75;5034895;28;20032;-85
2022/06/12 21:13:46;;;;;;;1.77;1.15;;;;;;;-143.85;100.00;70650.75;5033693;28;20033;-85
2022/06/12 21:16:12;;;;;;;2.03;1.52;;;;;;;-143.85;100.00;70650.75;5033648;28;20451;-84
2022/06/12 21:18:38;;;;;;;2.45;1.60;;;;;;;-143.85;100.00;70650.75;5034092;28;20156;-85
2022/06/12 21:21:08;;;;;;;2.70;1.63;;;;;;;-143.85;100.00;70650.75;5034622;28;20036;-85
2022/06/12 21:23:34;;;;;;;4.57;1.77;;;;;;;-143.85;100.00;70650.75;5033434;28;20025;-87
2022/06/12 21:25:59;;;;;;;2.63;1.65;;;;;;;-143.85;100.00;70650.75;5034219;28;20021;-86
2022/06/12 21:28:24;;;;;;;1.33;1.17;;;;;;;-143.85;100.00;70650.75;5033720;28;20535;-86
2022/06/12 21:30:51;;;;;;;1.98;1.38;;;;;;;-143.85;100.00;70650.75;5033644;28;20026;-86
2022/06/12 21:33:17;;;;;;;1.92;1.42;;;;;;;-143.85;100.00;70650.75;5033680;28;20060;-86
2022/06/12 21:35:43;;;;;;;2.42;1.83;;;;;;;-143.85;100.00;70650.75;5033129;28;20505;-85
2022/06/12 21:38:08;;;;;;;1.98;1.23;;;;;;;-143.85;100.00;70650.75;5033395;28;20065;-85
2022/06/12 21:40:34;;;;;;;1.33;1.23;;;;;;;-143.85;100.00;70650.75;5033440;28;20402;-86
2022/06/12 21:42:59;;;;;;;5.88;1.70;;;;;;;-143.85;100.00;70650.75;5034460;28;20025;-86
2022/06/12 21:45:25;;;;;;;1.88;1.70;;;;;;;-143.85;100.00;70650.75;5033933;28;20029;-86
2022/06/12 21:47:51;;;;;;;2.22;1.40;;;;;;;-143.85;100.00;70650.75;5033383;28;20401;-85
2022/06/12 21:50:20;;;;;;;1.45;1.17;;;;;;;-143.85;100.00;70650.75;5034433;28;20113;-85
2022/06/12 21:55:30;;;;;;;2.67;1.33;;;;;;;-143.85;100.00;70650.75;5034260;28;20036;-85
2022/06/12 21:57:57;;;;;;;1.50;1.17;;;;;;;-143.85;100.00;70650.75;5034492;28;20033;-85
2022/06/12 22:00:24;;;;;;;1.40;1.17;;;;;;;-143.85;100.00;70650.75;5033767;28;20386;-85
2022/06/12 22:02:51;;;;;;;1.05;0.95;;;;;;;-143.85;100.00;70650.75;5034041;28;20036;-85
2022/06/12 22:05:16;;;;;;;6.15;1.75;;;;;;;-143.85;100.00;70650.75;5033244;28;20512;-85
2022/06/12 22:07:42;;;;;;;4.88;1.25;;;;;;;-143.85;100.00;70650.75;5032594;28;20025;-85
2022/06/12 22:10:09;;;;;;;2.15;1.23;;;;;;;-143.85;100.00;70650.75;5033491;28;20026;-86
2022/06/12 22:12:38;;;;;;;7.63;1.63;;;;;;;-143.85;100.00;70650.75;5033041;28;20033;-87
2022/06/12 22:15:06;;;;;;;1.52;1.00;;;;;;;-143.85;100.00;70650.75;5032877;28;20457;-87
2022/06/12 22:17:32;;;;;;;2.47;1.25;;;;;;;-143.85;100.00;70650.75;5032478;28;20022;-86
2022/06/12 22:19:57;;;;;;;2.67;1.73;;;;;;;-143.85;100.00;70650.75;5032548;28;20034;-85
2022/06/12 22:22:23;;;;;;;2.83;1.38;;;;;;;-143.85;100.00;70650.75;5032772;28;20083;-86
2022/06/12 22:24:49;;;;;;;1.30;1.20;;;;;;;-143.85;100.00;70650.75;5033756;28;20025;-85
2022/06/12 22:27:14;;;;;;;1.38;1.27;;;;;;;-143.85;100.00;70650.75;5032541;28;20036;-86
2022/06/12 22:29:40;;;;;;;1.83;1.55;;;;;;;-143.85;100.00;70650.75;5032820;28;20018;-85
2022/06/12 22:32:05;;;;;;;0.90;0.90;;;;;;;-143.85;100.00;70650.75;5032622;28;20036;-87
2022/06/12 22:34:31;;;;;;;2.28;1.52;;;;;;;-143.85;100.00;70650.75;5032912;28;20031;-86
2022/06/12 22:36:56;;;;;;;2.20;1.35;;;;;;;-143.85;100.00;70650.75;5032420;28;20128;-88
2022/06/12 22:39:22;;;;;;;1.70;1.25;;;;;;;-143.85;100.00;70650.75;5032505;28;20096;-86
2022/06/12 22:41:48;;;;;;;3.33;0.95;;;;;;;-143.85;100.00;70650.75;5033451;28;20104;-86
2022/06/12 22:44:14;;;;;;;0.98;0.98;;;;;;;-143.85;100.00;70650.75;5033347;28;20095;-87
2022/06/12 22:46:39;;;;;;;2.28;1.42;;;;;;;-143.85;100.00;70650.75;5032455;28;20037;-85
2022/06/12 22:49:05;;;;;;;2.10;1.17;;;;;;;-143.85;100.00;70650.75;5032833;28;20060;-85
2022/06/12 22:51:31;;;;;;;0.95;0.80;;;;;;;-143.85;100.00;70650.75;5032831;28;20481;-86
2022/06/12 22:53:58;;;;;;;2.30;1.27;;;;;;;-143.85;100.00;70650.75;5031832;28;20109;-86
2022/06/12 22:56:23;;;;;;;2.88;1.30;;;;;;;-143.85;100.00;70650.75;5032084;28;20025;-85
2022/06/12 22:58:49;;;;;;;1.20;1.10;;;;;;;-143.85;100.00;70650.75;5031932;28;20025;-86
2022/06/12 23:01:20;;;;;;;1.85;1.10;;;;;;;-143.85;100.00;70650.75;5031904;28;20021;-86
2022/06/12 23:03:46;;;;;;;1.60;1.50;;;;;;;-143.85;100.00;70650.75;5033701;28;20104;-86
2022/06/12 23:06:11;;;;;;;1.33;1.02;;;;;;;-143.85;100.00;70650.75;5031790;28;20076;-85
2022/06/12 23:08:37;;;;;;;1.25;1.15;;;;;;;-143.85;100.00;70650.75;5032449;28;20022;-85
2022/06/12 23:11:04;;;;;;;4.20;1.13;;;;;;;-143.85;100.00;70650.75;5032083;28;20405;-85
2022/06/12 23:13:29;;;;;;;1.45;1.05;;;;;;;-143.85;100.00;70650.75;5031976;28;20413;-85
2022/06/12 23:15:55;;;;;;;2.05;1.08;;;;;;;-143.85;100.00;70650.75;5031822;28;20036;-86
2022/06/12 23:18:20;;;;;;;5.93;2.08;;;;;;;-143.85;100.00;70650.75;5031674;28;20025;-86
2022/06/12 23:20:46;;;;;;;2.50;1.35;;;;;;;-143.85;100.00;70650.75;5032880;28;20026;-86
2022/06/12 23:23:26;;;;;;;1.70;1.40;;;;;;;-143.85;100.00;70650.75;5031732;28;20044;-87
2022/06/12 23:26:12;;;;;;;1.23;0.88;;;;;;;-143.85;100.00;70650.75;5031788;28;20175;-85
2022/06/12 23:28:45;;;;;;;0.95;0.80;;;;;;;-143.85;100.00;70650.75;5032062;28;20048;-85
2022/06/12 23:31:24;;;;;;;1.58;0.88;;;;;;;-143.85;100.00;70650.75;5031688;28;20041;-85
2022/06/12 23:33:50;;;;;;;7.38;1.70;;;;;;;-143.85;100.00;70650.75;5032129;28;20030;-85
2022/06/12 23:36:16;;;;;;;1.40;1.23;;;;;;;-143.85;100.00;70650.75;5031345;28;20608;-86
2022/06/12 23:38:42;;;;;;;1.27;1.17;;;;;;;-143.85;100.00;70650.75;5031497;28;20061;-85
2022/06/12 23:41:07;;;;;;;2.28;1.25;;;;;;;-143.85;100.00;70650.75;5031998;28;20040;-85
2022/06/12 23:43:33;;;;;;;2.35;1.40;;;;;;;-143.85;100.00;70650.75;5031520;28;20022;-86
2022/06/12 23:46:14;;;;;;;1.38;1.02;;;;;;;-143.85;100.00;70650.75;5032865;28;20037;-85
2022/06/12 23:48:39;;;;;;;1.58;1.30;;;;;;;-143.85;100.00;70650.75;5033130;28;20034;-85
2022/06/12 23:51:05;;;;;;;2.58;1.35;;;;;;;-143.85;100.00;70650.75;5031319;28;20026;-84
2022/06/12 23:53:31;;;;;;;1.33;1.20;;;;;;;-143.85;100.00;70650.75;5031934;28;20075;-85
2022/06/12 23:55:57;;;;;;;1.33;1.02;;;;;;;-143.85;100.00;70650.75;5031211;28;20029;-84
2022/06/12 23:58:23;;;;;;;2.33;1.70;;;;;;;-143.85;100.00;70650.75;5031143;28;20022;-85
